sensor_id;sensor_type;location;lat;lon;timestamp;pressure;altitude;pressure_sealevel;temperature;humidity
16821;BME280;8527;49.740;6.604;2023-11-22T00:00:10;100460.06;;;6.54;98.12
16821;BME280;8527;49.740;6.604;2023-11-22T00:05:12;100459.75;;;6.47;95.10
16821;BME280;8527;49.740;6.604;2023-11-22T00:10:13;100463.09;;;6.38;94.14
16821;BME280;8527;49.740;6.604;2023-11-22T00:15:14;100482.25;;;6.40;94.23
16821;BME280;8527;49.740;6.604;2023-11-22T00:20:13;100494.97;;;6.35;93.34
16821;BME280;8527;49.740;6.604;2023-11-22T00:25:19;100491.63;;;6.32;93.00
16821;BME280;8527;49.740;6.604;2023-11-22T00:30:20;100496.66;;;6.24;92.56
16821;BME280;8527;49.740;6.604;2023-11-22T00:35:18;100502.19;;;6.21;92.15
16821;BME280;8527;49.740;6.604;2023-11-22T00:40:22;100500.53;;;6.09;93.68
16821;BME280;8527;49.740;6.604;2023-11-22T00:45:21;100512.22;;;6.04;93.31
16821;BME280;8527;49.740;6.604;2023-11-22T00:50:20;100517.59;;;5.91;93.67
16821;BME280;8527;49.740;6.604;2023-11-22T00:55:24;100503.47;;;5.93;93.46
16821;BME280;8527;49.740;6.604;2023-11-22T01:00:23;100505.41;;;5.90;93.64
16821;BME280;8527;49.740;6.604;2023-11-22T01:05:21;100498.81;;;5.73;94.09
16821;BME280;8527;49.740;6.604;2023-11-22T01:10:20;100506.47;;;5.76;93.99
16821;BME280;8527;49.740;6.604;2023-11-22T01:15:27;100512.31;;;5.69;94.94
16821;BME280;8527;49.740;6.604;2023-11-22T01:20:25;100519.75;;;5.63;94.05
16821;BME280;8527;49.740;6.604;2023-11-22T01:25:24;100523.09;;;5.66;93.31
16821;BME280;8527;49.740;6.604;2023-11-22T01:30:31;100531.69;;;5.68;94.14
16821;BME280;8527;49.740;6.604;2023-11-22T01:35:30;100533.25;;;5.59;94.32
16821;BME280;8527;49.740;6.604;2023-11-22T01:40:29;100534.91;;;5.60;95.00
16821;BME280;8527;49.740;6.604;2023-11-22T01:45:31;100545.44;;;5.60;95.77
16821;BME280;8527;49.740;6.604;2023-11-22T01:50:29;100544.00;;;5.67;94.94
16821;BME280;8527;49.740;6.604;2023-11-22T01:55:34;100541.75;;;5.74;94.94
16821;BME280;8527;49.740;6.604;2023-11-22T02:00:51;100539.34;;;5.71;94.45
16821;BME280;8527;49.740;6.604;2023-11-22T02:05:54;100546.50;;;5.57;94.58
16821;BME280;8527;49.740;6.604;2023-11-22T02:10:59;100557.63;;;5.49;95.83
16821;BME280;8527;49.740;6.604;2023-11-22T02:16:02;100556.25;;;5.32;97.04
16821;BME280;8527;49.740;6.604;2023-11-22T02:21:08;100544.72;;;5.22;97.87
16821;BME280;8527;49.740;6.604;2023-11-22T02:26:10;100562.56;;;5.18;96.80
16821;BME280;8527;49.740;6.604;2023-11-22T02:31:11;100572.59;;;5.25;96.73
16821;BME280;8527;49.740;6.604;2023-11-22T02:36:09;100587.16;;;5.17;97.87
16821;BME280;8527;49.740;6.604;2023-11-22T02:41:11;100601.81;;;5.09;96.97
16821;BME280;8527;49.740;6.604;2023-11-22T02:46:10;100606.06;;;4.98;97.51
16821;BME280;8527;49.740;6.604;2023-11-22T02:51:10;100607.69;;;4.88;98.41
16821;BME280;8527;49.740;6.604;2023-11-22T02:56:11;100620.47;;;4.92;98.19
16821;BME280;8527;49.740;6.604;2023-11-22T03:01:10;100635.53;;;4.90;99.07
16821;BME280;8527;49.740;6.604;2023-11-22T03:06:11;100638.69;;;4.96;97.34
16821;BME280;8527;49.740;6.604;2023-11-22T03:11:15;100646.78;;;4.92;96.39
16821;BME280;8527;49.740;6.604;2023-11-22T03:16:18;100636.66;;;4.99;98.58
16821;BME280;8527;49.740;6.604;2023-11-22T03:21:17;100639.34;;;4.86;98.09
16821;BME280;8527;49.740;6.604;2023-11-22T03:26:20;100641.41;;;4.94;97.89
16821;BME280;8527;49.740;6.604;2023-11-22T03:31:19;100642.53;;;5.03;97.04
16821;BME280;8527;49.740;6.604;2023-11-22T03:36:17;100645.47;;;4.87;96.44
16821;BME280;8527;49.740;6.604;2023-11-22T03:41:21;100646.50;;;4.84;96.46
16821;BME280;8527;49.740;6.604;2023-11-22T03:46:19;100658.06;;;4.82;97.68
16821;BME280;8527;49.740;6.604;2023-11-22T03:51:18;100663.06;;;4.60;97.25
16821;BME280;8527;49.740;6.604;2023-11-22T03:56:31;100666.63;;;4.46;97.96
16821;BME280;8527;49.740;6.604;2023-11-22T04:01:35;100672.31;;;4.40;98.67
16821;BME280;8527;49.740;6.604;2023-11-22T04:06:36;100691.53;;;4.41;98.48
16821;BME280;8527;49.740;6.604;2023-11-22T04:11:38;100693.72;;;4.34;98.05
16821;BME280;8527;49.740;6.604;2023-11-22T04:16:37;100697.31;;;4.20;98.75
16821;BME280;8527;49.740;6.604;2023-11-22T04:21:35;100710.88;;;4.27;98.27
16821;BME280;8527;49.740;6.604;2023-11-22T04:26:43;100713.47;;;4.14;98.66
16821;BME280;8527;49.740;6.604;2023-11-22T04:31:42;100727.03;;;4.20;98.01
16821;BME280;8527;49.740;6.604;2023-11-22T04:36:40;100726.81;;;4.11;100.00
16821;BME280;8527;49.740;6.604;2023-11-22T04:41:49;100728.78;;;4.07;99.31
16821;BME280;8527;49.740;6.604;2023-11-22T04:46:48;100739.34;;;4.20;97.50
16821;BME280;8527;49.740;6.604;2023-11-22T04:51:46;100742.06;;;4.18;97.29
16821;BME280;8527;49.740;6.604;2023-11-22T04:56:50;100756.47;;;4.26;99.72
16821;BME280;8527;49.740;6.604;2023-11-22T05:01:49;100781.16;;;4.23;98.31
16821;BME280;8527;49.740;6.604;2023-11-22T05:06:48;100765.91;;;4.28;100.00
16821;BME280;8527;49.740;6.604;2023-11-22T05:11:51;100780.94;;;4.26;99.64
16821;BME280;8527;49.740;6.604;2023-11-22T05:16:50;100784.72;;;4.22;99.99
16821;BME280;8527;49.740;6.604;2023-11-22T05:21:50;100786.06;;;4.15;100.00
16821;BME280;8527;49.740;6.604;2023-11-22T05:26:52;100780.19;;;4.24;100.00
16821;BME280;8527;49.740;6.604;2023-11-22T05:31:50;100771.28;;;4.27;100.00
16821;BME280;8527;49.740;6.604;2023-11-22T05:36:49;100764.97;;;4.29;100.00
16821;BME280;8527;49.740;6.604;2023-11-22T05:41:47;100770.34;;;4.28;100.00
16821;BME280;8527;49.740;6.604;2023-11-22T05:46:49;100779.16;;;4.27;100.00
16821;BME280;8527;49.740;6.604;2023-11-22T05:51:52;100780.94;;;4.26;100.00
16821;BME280;8527;49.740;6.604;2023-11-22T05:56:51;100790.41;;;4.29;100.00
16821;BME280;8527;49.740;6.604;2023-11-22T06:01:52;100785.16;;;4.29;100.00
16821;BME280;8527;49.740;6.604;2023-11-22T06:06:54;100801.13;;;4.26;100.00
16821;BME280;8527;49.740;6.604;2023-11-22T06:11:52;100801.94;;;4.26;100.00
16821;BME280;8527;49.740;6.604;2023-11-22T06:16:57;100818.06;;;4.34;100.00
16821;BME280;8527;49.740;6.604;2023-11-22T06:22:04;100813.97;;;4.30;100.00
16821;BME280;8527;49.740;6.604;2023-11-22T06:27:08;100817.50;;;4.29;100.00
16821;BME280;8527;49.740;6.604;2023-11-22T06:32:09;100829.91;;;4.27;100.00
16821;BME280;8527;49.740;6.604;2023-11-22T06:37:07;100832.72;;;4.24;100.00
16821;BME280;8527;49.740;6.604;2023-11-22T06:42:12;100841.56;;;4.23;100.00
16821;BME280;8527;49.740;6.604;2023-11-22T06:47:15;100838.69;;;4.13;100.00
16821;BME280;8527;49.740;6.604;2023-11-22T06:52:17;100845.44;;;4.17;100.00
16821;BME280;8527;49.740;6.604;2023-11-22T06:57:20;100833.16;;;4.18;100.00
16821;BME280;8527;49.740;6.604;2023-11-22T07:02:27;100846.72;;;4.25;100.00
16821;BME280;8527;49.740;6.604;2023-11-22T07:07:29;100850.09;;;4.27;100.00
16821;BME280;8527;49.740;6.604;2023-11-22T07:12:30;100849.13;;;4.28;100.00
16821;BME280;8527;49.740;6.604;2023-11-22T07:17:32;100851.78;;;4.28;100.00
16821;BME280;8527;49.740;6.604;2023-11-22T07:22:30;100856.16;;;4.27;100.00
16821;BME280;8527;49.740;6.604;2023-11-22T07:27:29;100865.78;;;4.14;100.00
16821;BME280;8527;49.740;6.604;2023-11-22T07:32:28;100867.53;;;4.28;100.00
16821;BME280;8527;49.740;6.604;2023-11-22T07:37:29;100874.91;;;4.35;100.00
16821;BME280;8527;49.740;6.604;2023-11-22T07:42:28;100874.63;;;4.40;100.00
16821;BME280;8527;49.740;6.604;2023-11-22T07:47:26;100880.41;;;4.45;100.00
16821;BME280;8527;49.740;6.604;2023-11-22T07:52:32;100886.44;;;4.73;99.42
16821;BME280;8527;49.740;6.604;2023-11-22T07:57:33;100887.00;;;4.78;97.96
16821;BME280;8527;49.740;6.604;2023-11-22T08:02:31;100907.44;;;4.88;95.26
16821;BME280;8527;49.740;6.604;2023-11-22T08:07:29;100918.56;;;4.78;92.95
16821;BME280;8527;49.740;6.604;2023-11-22T08:12:28;100922.69;;;4.96;90.54
16821;BME280;8527;49.740;6.604;2023-11-22T08:17:32;100940.47;;;5.05;88.05
16821;BME280;8527;49.740;6.604;2023-11-22T08:22:31;100951.63;;;5.09;83.79
16821;BME280;8527;49.740;6.604;2023-11-22T08:27:31;100942.09;;;5.20;81.03
16821;BME280;8527;49.740;6.604;2023-11-22T08:32:35;100945.13;;;5.14;79.23
16821;BME280;8527;49.740;6.604;2023-11-22T08:37:33;100934.59;;;5.14;79.22
16821;BME280;8527;49.740;6.604;2023-11-22T08:42:36;100943.63;;;5.23;78.54
16821;BME280;8527;49.740;6.604;2023-11-22T08:47:41;100921.75;;;5.10;73.15
16821;BME280;8527;49.740;6.604;2023-11-22T08:52:45;100914.59;;;5.12;71.94
16821;BME280;8527;49.740;6.604;2023-11-22T08:57:43;100900.31;;;5.16;68.17
16821;BME280;8527;49.740;6.604;2023-11-22T09:02:45;100908.09;;;5.30;66.03
16821;BME280;8527;49.740;6.604;2023-11-22T09:07:45;100881.97;;;5.40;64.60
16821;BME280;8527;49.740;6.604;2023-11-22T09:12:45;100881.75;;;5.56;63.74
16821;BME280;8527;49.740;6.604;2023-11-22T09:17:46;100874.16;;;5.52;62.92
16821;BME280;8527;49.740;6.604;2023-11-22T09:22:48;100873.50;;;5.74;63.38
16821;BME280;8527;49.740;6.604;2023-11-22T09:27:51;100896.28;;;5.62;60.53
16821;BME280;8527;49.740;6.604;2023-11-22T09:32:56;100925.13;;;5.51;61.45
16821;BME280;8527;49.740;6.604;2023-11-22T09:37:57;100960.59;;;5.19;62.66
16821;BME280;8527;49.740;6.604;2023-11-22T09:42:59;100956.91;;;5.21;61.88
16821;BME280;8527;49.740;6.604;2023-11-22T09:48:02;100937.94;;;5.16;59.38
16821;BME280;8527;49.740;6.604;2023-11-22T09:53:02;100957.13;;;5.18;58.95
16821;BME280;8527;49.740;6.604;2023-11-22T09:58:06;100945.53;;;5.21;60.89
16821;BME280;8527;49.740;6.604;2023-11-22T10:03:09;100942.50;;;5.40;59.29
16821;BME280;8527;49.740;6.604;2023-11-22T10:08:10;100927.81;;;5.75;58.41
16821;BME280;8527;49.740;6.604;2023-11-22T10:13:10;100919.19;;;5.73;58.25
16821;BME280;8527;49.740;6.604;2023-11-22T10:18:11;100938.59;;;5.72;58.29
16821;BME280;8527;49.740;6.604;2023-11-22T10:23:09;100941.34;;;5.70;58.03
16821;BME280;8527;49.740;6.604;2023-11-22T10:28:11;100924.13;;;6.03;57.54
16821;BME280;8527;49.740;6.604;2023-11-22T10:33:14;100913.97;;;6.10;58.14
16821;BME280;8527;49.740;6.604;2023-11-22T10:38:20;100934.72;;;6.15;58.56
16821;BME280;8527;49.740;6.604;2023-11-22T10:43:22;100917.34;;;6.12;56.52
16821;BME280;8527;49.740;6.604;2023-11-22T10:48:24;100924.66;;;6.09;57.00
16821;BME280;8527;49.740;6.604;2023-11-22T10:53:31;100936.53;;;6.14;57.00
16821;BME280;8527;49.740;6.604;2023-11-22T10:58:32;100928.72;;;6.00;56.36
16821;BME280;8527;49.740;6.604;2023-11-22T11:03:37;100928.66;;;6.14;57.67
16821;BME280;8527;49.740;6.604;2023-11-22T11:08:40;100915.28;;;6.53;57.87
16821;BME280;8527;49.740;6.604;2023-11-22T11:13:43;100913.78;;;6.13;56.20
16821;BME280;8527;49.740;6.604;2023-11-22T11:18:47;100934.78;;;6.39;57.56
16821;BME280;8527;49.740;6.604;2023-11-22T11:23:46;100925.00;;;6.28;56.28
16821;BME280;8527;49.740;6.604;2023-11-22T11:28:46;100917.94;;;6.29;55.94
16821;BME280;8527;49.740;6.604;2023-11-22T11:34:04;100930.84;;;6.45;56.18
16821;BME280;8527;49.740;6.604;2023-11-22T11:39:06;100929.16;;;6.68;56.06
16821;BME280;8527;49.740;6.604;2023-11-22T11:44:10;100936.59;;;6.74;56.01
16821;BME280;8527;49.740;6.604;2023-11-22T11:49:12;100949.72;;;6.39;54.71
16821;BME280;8527;49.740;6.604;2023-11-22T11:54:17;100942.19;;;6.58;56.00
16821;BME280;8527;49.740;6.604;2023-11-22T11:59:17;100945.97;;;6.30;55.41
16821;BME280;8527;49.740;6.604;2023-11-22T12:04:18;100927.84;;;6.50;54.80
16821;BME280;8527;49.740;6.604;2023-11-22T12:09:22;100914.13;;;6.57;54.85
16821;BME280;8527;49.740;6.604;2023-11-22T12:14:23;100905.31;;;6.81;52.99
16821;BME280;8527;49.740;6.604;2023-11-22T12:19:28;100910.78;;;6.67;52.93
16821;BME280;8527;49.740;6.604;2023-11-22T12:24:30;100906.00;;;6.60;53.69
16821;BME280;8527;49.740;6.604;2023-11-22T12:29:29;100905.50;;;6.67;54.36
16821;BME280;8527;49.740;6.604;2023-11-22T12:34:33;100885.56;;;6.51;52.04
16821;BME280;8527;49.740;6.604;2023-11-22T12:39:36;100887.44;;;6.73;52.10
16821;BME280;8527;49.740;6.604;2023-11-22T12:44:47;100880.97;;;6.66;50.64
16821;BME280;8527;49.740;6.604;2023-11-22T12:49:53;100904.69;;;6.66;51.89
16821;BME280;8527;49.740;6.604;2023-11-22T12:54:51;100917.16;;;6.75;52.56
16821;BME280;8527;49.740;6.604;2023-11-22T12:59:53;100895.59;;;6.70;51.75
16821;BME280;8527;49.740;6.604;2023-11-22T13:04:55;100886.38;;;6.76;52.07
16821;BME280;8527;49.740;6.604;2023-11-22T13:09:58;100874.22;;;6.62;52.44
16821;BME280;8527;49.740;6.604;2023-11-22T13:14:57;100878.19;;;6.68;52.62
16821;BME280;8527;49.740;6.604;2023-11-22T13:19:58;100864.03;;;6.69;53.50
16821;BME280;8527;49.740;6.604;2023-11-22T13:25:04;100823.03;;;6.53;51.69
16821;BME280;8527;49.740;6.604;2023-11-22T13:30:09;100818.84;;;6.62;52.80
16821;BME280;8527;49.740;6.604;2023-11-22T13:35:10;100824.09;;;6.51;52.47
16821;BME280;8527;49.740;6.604;2023-11-22T13:40:15;100850.84;;;6.69;53.24
16821;BME280;8527;49.740;6.604;2023-11-22T13:45:17;100839.78;;;6.52;52.63
16821;BME280;8527;49.740;6.604;2023-11-22T13:50:19;100836.88;;;6.44;52.59
16821;BME280;8527;49.740;6.604;2023-11-22T13:55:21;100848.31;;;6.56;52.89
16821;BME280;8527;49.740;6.604;2023-11-22T14:00:22;100856.56;;;6.51;52.41
16821;BME280;8527;49.740;6.604;2023-11-22T14:05:34;100853.31;;;6.47;52.82
16821;BME280;8527;49.740;6.604;2023-11-22T14:10:33;100845.38;;;6.72;52.85
16821;BME280;8527;49.740;6.604;2023-11-22T14:15:31;100842.78;;;6.47;53.04
16821;BME280;8527;49.740;6.604;2023-11-22T14:20:38;100844.16;;;6.65;58.26
16821;BME280;8527;49.740;6.604;2023-11-22T14:25:38;100872.78;;;6.58;63.26
16821;BME280;8527;49.740;6.604;2023-11-22T14:30:40;100885.41;;;6.41;64.93
16821;BME280;8527;49.740;6.604;2023-11-22T14:35:44;100900.72;;;6.12;67.22
16821;BME280;8527;49.740;6.604;2023-11-22T14:40:45;100898.59;;;5.67;69.11
16821;BME280;8527;49.740;6.604;2023-11-22T14:45:43;100911.03;;;5.65;69.46
16821;BME280;8527;49.740;6.604;2023-11-22T14:50:47;100917.09;;;5.78;68.72
16821;BME280;8527;49.740;6.604;2023-11-22T14:55:48;100917.19;;;5.76;68.86
16821;BME280;8527;49.740;6.604;2023-11-22T15:00:49;100914.25;;;5.81;69.80
16821;BME280;8527;49.740;6.604;2023-11-22T15:05:50;100945.03;;;5.68;70.67
16821;BME280;8527;49.740;6.604;2023-11-22T15:10:49;100962.31;;;5.59;70.07
16821;BME280;8527;49.740;6.604;2023-11-22T15:15:47;100968.63;;;5.56;70.38
16821;BME280;8527;49.740;6.604;2023-11-22T15:20:46;100969.88;;;5.63;69.67
16821;BME280;8527;49.740;6.604;2023-11-22T15:25:47;100986.19;;;5.43;71.26
16821;BME280;8527;49.740;6.604;2023-11-22T15:30:48;101000.19;;;5.43;71.97
16821;BME280;8527;49.740;6.604;2023-11-22T15:35:54;101007.13;;;5.18;73.04
16821;BME280;8527;49.740;6.604;2023-11-22T15:41:00;100989.88;;;5.27;72.15
16821;BME280;8527;49.740;6.604;2023-11-22T15:45:59;100990.88;;;5.12;72.62
16821;BME280;8527;49.740;6.604;2023-11-22T15:51:06;100992.00;;;4.95;73.71
16821;BME280;8527;49.740;6.604;2023-11-22T15:56:09;100984.13;;;4.95;72.95
16821;BME280;8527;49.740;6.604;2023-11-22T16:01:10;100985.75;;;4.83;73.86
16821;BME280;8527;49.740;6.604;2023-11-22T16:06:09;100970.22;;;4.92;74.15
16821;BME280;8527;49.740;6.604;2023-11-22T16:11:13;100975.97;;;4.85;73.50
16821;BME280;8527;49.740;6.604;2023-11-22T16:16:12;100981.34;;;4.83;74.91
16821;BME280;8527;49.740;6.604;2023-11-22T16:21:14;100978.56;;;4.72;76.26
16821;BME280;8527;49.740;6.604;2023-11-22T16:26:16;100987.28;;;4.72;75.34
16821;BME280;8527;49.740;6.604;2023-11-22T16:31:16;100988.72;;;4.63;76.54
16821;BME280;8527;49.740;6.604;2023-11-22T16:36:17;100999.44;;;4.60;77.79
16821;BME280;8527;49.740;6.604;2023-11-22T16:41:20;100995.47;;;4.40;77.71
16821;BME280;8527;49.740;6.604;2023-11-22T16:46:22;101004.94;;;4.43;78.08
16821;BME280;8527;49.740;6.604;2023-11-22T16:51:21;100993.28;;;4.47;76.72
16821;BME280;8527;49.740;6.604;2023-11-22T16:56:22;100994.78;;;4.51;76.32
16821;BME280;8527;49.740;6.604;2023-11-22T17:01:23;101008.69;;;4.39;77.71
16821;BME280;8527;49.740;6.604;2023-11-22T17:06:30;101017.69;;;4.49;77.42
16821;BME280;8527;49.740;6.604;2023-11-22T17:11:34;101009.59;;;4.52;77.70
16821;BME280;8527;49.740;6.604;2023-11-22T17:16:35;100991.50;;;4.47;78.27
16821;BME280;8527;49.740;6.604;2023-11-22T17:21:33;100972.78;;;4.39;78.70
16821;BME280;8527;49.740;6.604;2023-11-22T17:26:34;100993.03;;;4.37;78.92
16821;BME280;8527;49.740;6.604;2023-11-22T17:31:33;101016.56;;;4.39;80.32
16821;BME280;8527;49.740;6.604;2023-11-22T17:36:33;101015.47;;;4.43;80.37
16821;BME280;8527;49.740;6.604;2023-11-22T17:41:34;101011.25;;;4.26;79.58
16821;BME280;8527;49.740;6.604;2023-11-22T17:46:33;101022.53;;;4.13;80.59
16821;BME280;8527;49.740;6.604;2023-11-22T17:51:38;101047.38;;;4.22;80.53
16821;BME280;8527;49.740;6.604;2023-11-22T17:56:42;101048.41;;;4.05;82.19
16821;BME280;8527;49.740;6.604;2023-11-22T18:01:42;101049.34;;;4.04;81.36
16821;BME280;8527;49.740;6.604;2023-11-22T18:06:40;101052.53;;;4.09;80.79
16821;BME280;8527;49.740;6.604;2023-11-22T18:11:41;101058.44;;;4.13;80.21
16821;BME280;8527;49.740;6.604;2023-11-22T18:16:40;101053.84;;;4.16;80.15
16821;BME280;8527;49.740;6.604;2023-11-22T18:21:40;101048.13;;;4.10;80.67
16821;BME280;8527;49.740;6.604;2023-11-22T18:26:41;101032.56;;;4.06;80.17
16821;BME280;8527;49.740;6.604;2023-11-22T18:31:40;101038.44;;;4.10;80.80
16821;BME280;8527;49.740;6.604;2023-11-22T18:36:38;101020.38;;;4.05;81.53
16821;BME280;8527;49.740;6.604;2023-11-22T18:41:37;101024.41;;;3.97;81.54
16821;BME280;8527;49.740;6.604;2023-11-22T18:46:38;101004.31;;;3.96;80.82
16821;BME280;8527;49.740;6.604;2023-11-22T18:51:36;101004.78;;;4.02;80.43
16821;BME280;8527;49.740;6.604;2023-11-22T18:56:35;101001.69;;;3.96;81.17
16821;BME280;8527;49.740;6.604;2023-11-22T19:01:34;101000.28;;;3.90;80.57
16821;BME280;8527;49.740;6.604;2023-11-22T19:06:36;101001.63;;;3.97;80.54
16821;BME280;8527;49.740;6.604;2023-11-22T19:11:34;100994.31;;;3.88;81.65
16821;BME280;8527;49.740;6.604;2023-11-22T19:16:34;100995.72;;;3.79;82.17
16821;BME280;8527;49.740;6.604;2023-11-22T19:21:35;100998.81;;;3.86;81.64
16821;BME280;8527;49.740;6.604;2023-11-22T19:26:34;100994.31;;;3.73;82.43
16821;BME280;8527;49.740;6.604;2023-11-22T19:31:32;100992.34;;;3.62;83.04
16821;BME280;8527;49.740;6.604;2023-11-22T19:36:31;100992.41;;;3.61;83.70
16821;BME280;8527;49.740;6.604;2023-11-22T19:41:32;100986.13;;;3.49;84.04
16821;BME280;8527;49.740;6.604;2023-11-22T19:46:34;100986.22;;;3.47;83.51
16821;BME280;8527;49.740;6.604;2023-11-22T19:51:32;100985.00;;;3.53;83.17
16821;BME280;8527;49.740;6.604;2023-11-22T19:56:37;101000.19;;;3.48;83.01
16821;BME280;8527;49.740;6.604;2023-11-22T20:01:40;101015.41;;;3.41;83.46
16821;BME280;8527;49.740;6.604;2023-11-22T20:06:39;101016.81;;;3.32;84.49
16821;BME280;8527;49.740;6.604;2023-11-22T20:11:40;101027.00;;;3.22;84.26
16821;BME280;8527;49.740;6.604;2023-11-22T20:16:42;101017.06;;;3.28;83.56
16821;BME280;8527;49.740;6.604;2023-11-22T20:21:43;101005.16;;;3.22;83.88
16821;BME280;8527;49.740;6.604;2023-11-22T20:26:45;101000.00;;;3.06;84.71
16821;BME280;8527;49.740;6.604;2023-11-22T20:31:43;100991.47;;;3.02;84.58
16821;BME280;8527;49.740;6.604;2023-11-22T20:36:44;100997.94;;;3.11;84.03
16821;BME280;8527;49.740;6.604;2023-11-22T20:41:47;101004.88;;;3.12;84.56
16821;BME280;8527;49.740;6.604;2023-11-22T20:46:46;101037.88;;;3.16;84.03
16821;BME280;8527;49.740;6.604;2023-11-22T20:51:45;101019.31;;;3.19;84.31
16821;BME280;8527;49.740;6.604;2023-11-22T20:56:48;101012.84;;;3.11;84.16
16821;BME280;8527;49.740;6.604;2023-11-22T21:01:46;101000.47;;;3.13;81.02
16821;BME280;8527;49.740;6.604;2023-11-22T21:06:46;100996.81;;;3.15;78.44
16821;BME280;8527;49.740;6.604;2023-11-22T21:11:44;100996.25;;;3.10;77.43
16821;BME280;8527;49.740;6.604;2023-11-22T21:16:48;100997.00;;;3.12;78.67
16821;BME280;8527;49.740;6.604;2023-11-22T21:21:46;100992.94;;;3.06;77.74
16821;BME280;8527;49.740;6.604;2023-11-22T21:26:47;100986.03;;;3.05;77.92
16821;BME280;8527;49.740;6.604;2023-11-22T21:31:51;100994.16;;;3.01;77.89
16821;BME280;8527;49.740;6.604;2023-11-22T21:36:52;100984.06;;;3.09;77.99
16821;BME280;8527;49.740;6.604;2023-11-22T21:41:51;100971.75;;;2.95;78.51
16821;BME280;8527;49.740;6.604;2023-11-22T21:46:54;100977.00;;;2.95;78.64
16821;BME280;8527;49.740;6.604;2023-11-22T21:51:53;100985.78;;;2.94;79.11
16821;BME280;8527;49.740;6.604;2023-11-22T21:56:52;100984.22;;;2.91;79.41
16821;BME280;8527;49.740;6.604;2023-11-22T22:01:53;100991.59;;;2.85;79.84
16821;BME280;8527;49.740;6.604;2023-11-22T22:06:51;100985.66;;;2.81;80.04
16821;BME280;8527;49.740;6.604;2023-11-22T22:11:49;101002.06;;;2.85;79.77
16821;BME280;8527;49.740;6.604;2023-11-22T22:16:48;100988.28;;;2.81;80.58
16821;BME280;8527;49.740;6.604;2023-11-22T22:21:50;100993.91;;;2.89;80.71
16821;BME280;8527;49.740;6.604;2023-11-22T22:26:48;100996.72;;;2.86;82.02
16821;BME280;8527;49.740;6.604;2023-11-22T22:31:47;100990.72;;;2.84;81.61
16821;BME280;8527;49.740;6.604;2023-11-22T22:36:45;100999.28;;;2.72;83.17
16821;BME280;8527;49.740;6.604;2023-11-22T22:41:46;101009.00;;;2.70;84.17
16821;BME280;8527;49.740;6.604;2023-11-22T22:46:46;101012.06;;;2.62;84.72
16821;BME280;8527;49.740;6.604;2023-11-22T22:51:44;101021.44;;;2.66;84.48
16821;BME280;8527;49.740;6.604;2023-11-22T22:56:43;101025.50;;;2.56;85.93
16821;BME280;8527;49.740;6.604;2023-11-22T23:01:45;101024.22;;;2.47;85.79
16821;BME280;8527;49.740;6.604;2023-11-22T23:06:50;101042.06;;;2.40;86.39
16821;BME280;8527;49.740;6.604;2023-11-22T23:11:51;101050.31;;;2.32;86.39
16821;BME280;8527;49.740;6.604;2023-11-22T23:16:54;101048.72;;;2.30;86.71
16821;BME280;8527;49.740;6.604;2023-11-22T23:21:58;101033.16;;;2.27;86.50
16821;BME280;8527;49.740;6.604;2023-11-22T23:26:59;101025.44;;;2.07;86.01
16821;BME280;8527;49.740;6.604;2023-11-22T23:32:04;101011.16;;;1.97;86.94
16821;BME280;8527;49.740;6.604;2023-11-22T23:37:03;100990.97;;;1.99;85.85
16821;BME280;8527;49.740;6.604;2023-11-22T23:42:03;100984.22;;;1.95;85.93
16821;BME280;8527;49.740;6.604;2023-11-22T23:47:11;100965.41;;;1.88;86.29
16821;BME280;8527;49.740;6.604;2023-11-22T23:52:10;100961.16;;;1.86;86.39
16821;BME280;8527;49.740;6.604;2023-11-22T23:57:09;100966.97;;;1.75;87.25
